Time;durP1;ratioP1;P1;durP2;ratioP2;P2;SDS_P1;SDS_P2;PMS_P1;PMS_P2;Temp;Humidity;BMP_temperature;BMP_pressure;BME280_temperature;BME280_humidity;BME280_pressure;Samples;Min_cycle;Max_cycle;Signal;HPM_P1;HPM_P2
2024/01/13 00:01:29;;;;;;;;;;;52.00;2227.20;;;;;;4930974;29;20337;-80
2024/01/13 00:03:54;;;;;;;;;;;51.90;2227.20;;;;;;4938564;28;19937;-82
2024/01/13 00:06:20;;;;;;;;;;;52.00;2227.20;;;;;;4929439;29;19914;-81
2024/01/13 00:08:46;;;;;;;;;;;52.00;2227.20;;;;;;4927670;29;19906;-81
2024/01/13 00:11:11;;;;;;;;;;;52.00;2227.20;;;;;;4924200;29;20342;-80
2024/01/13 00:13:37;;;;;;;;;;;52.10;2227.20;;;;;;4943033;29;19914;-82
2024/01/13 00:16:02;;;;;;;;;;;52.10;2227.20;;;;;;4926504;29;19907;-80
2024/01/13 00:18:28;;;;;;;;;;;76.80;2227.20;;;;;;4943125;28;19960;-82
2024/01/13 00:20:54;;;;;;;;;;;76.80;2227.20;;;;;;4935065;29;20387;-81
2024/01/13 00:23:19;;;;;;;;;;;76.80;2227.20;;;;;;4944801;29;20021;-80
2024/01/13 00:25:46;;;;;;;;;;;76.90;2227.20;;;;;;4935584;29;19949;-80
2024/01/13 00:28:12;;;;;;;;;;;76.90;2227.20;;;;;;4938568;29;19911;-80
2024/01/13 00:30:37;;;;;;;;;;;76.80;2227.20;;;;;;4946315;28;20005;-81
2024/01/13 00:33:03;;;;;;;;;;;76.80;2227.20;;;;;;4933559;29;19910;-81
2024/01/13 00:35:29;;;;;;;;;;;52.10;2227.20;;;;;;4945610;29;19942;-81
2024/01/13 00:37:54;;;;;;;;;;;52.00;2227.20;;;;;;4929140;29;19913;-82
2024/01/13 00:40:20;;;;;;;;;;;52.10;2227.20;;;;;;4942116;29;19996;-81
2024/01/13 00:42:46;;;;;;;;;;;52.10;2227.20;;;;;;4935875;29;20070;-81
2024/01/13 00:45:12;;;;;;;;;;;52.10;2227.20;;;;;;4939445;29;19911;-81
2024/01/13 00:47:37;;;;;;;;;;;52.10;2227.20;;;;;;4931214;29;19906;-81
2024/01/13 00:50:03;;;;;;;;;;;52.10;2227.20;;;;;;4944792;29;20352;-80
2024/01/13 00:52:29;;;;;;;;;;;52.10;2227.20;;;;;;4946775;29;20292;-80
2024/01/13 00:54:54;;;;;;;;;;;76.80;2227.20;;;;;;4953322;28;19958;-81
2024/01/13 00:57:20;;;;;;;;;;;77.00;2227.20;;;;;;4929597;29;19910;-82
2024/01/13 00:59:45;;;;;;;;;;;76.80;2227.20;;;;;;4952920;29;19906;-82
2024/01/13 01:02:11;;;;;;;;;;;52.10;2227.20;;;;;;4958320;29;19926;-78
2024/01/13 01:04:37;;;;;;;;;;;52.10;2227.20;;;;;;4928714;29;19914;-79
2024/01/13 01:07:02;;;;;;;;;;;76.80;2227.20;;;;;;4935128;29;19911;-81
2024/01/13 01:09:28;;;;;;;;;;;52.00;2227.20;;;;;;4932262;29;19907;-82
2024/01/13 01:11:53;;;;;;;;;;;52.00;2227.20;;;;;;4951110;28;19907;-81
2024/01/13 01:14:19;;;;;;;;;;;51.90;2227.20;;;;;;4958534;28;19985;-81
2024/01/13 01:16:45;;;;;;;;;;;51.90;2227.20;;;;;;4955106;29;19953;-81
2024/01/13 01:19:10;;;;;;;;;;;51.90;2227.20;;;;;;4942268;29;19907;-79
2024/01/13 01:21:36;;;;;;;;;;;51.90;2227.20;;;;;;4928020;29;19946;-81
2024/01/13 01:24:02;;;;;;;;;;;51.90;2227.20;;;;;;4936563;29;19911;-81
2024/01/13 01:26:27;;;;;;;;;;;51.90;2227.20;;;;;;4930669;29;19913;-82
2024/01/13 01:28:53;;;;;;;;;;;51.80;2227.20;;;;;;4945630;29;19947;-80
2024/01/13 01:31:18;;;;;;;;;;;51.80;2227.20;;;;;;4955504;28;19918;-80
2024/01/13 01:33:44;;;;;;;;;;;51.70;2227.20;;;;;;4947749;29;20360;-78
2024/01/13 01:36:10;;;;;;;;;;;51.70;2227.20;;;;;;4937897;29;19911;-82
2024/01/13 01:38:36;;;;;;;;;;;51.80;2227.20;;;;;;4953129;29;20372;-82
2024/01/13 01:41:02;;;;;;;;;;;51.70;2227.20;;;;;;4926006;29;19934;-82
2024/01/13 01:43:27;;;;;;;;;;;51.70;2227.20;;;;;;4927424;29;19915;-81
2024/01/13 01:45:54;;;;;;;;;;;51.80;2227.20;;;;;;4940408;29;19907;-82
2024/01/13 01:48:24;;;;;;;;;;;51.70;2227.20;;;;;;4938688;29;19914;-82
2024/01/13 01:50:50;;;;;;;;;;;51.70;2227.20;;;;;;4922793;29;20006;-81
2024/01/13 01:53:15;;;;;;;;;;;51.70;2227.20;;;;;;4921094;29;20366;-83
2024/01/13 01:55:41;;;;;;;;;;;51.60;2227.20;;;;;;4935552;29;20031;-81
2024/01/13 01:58:06;;;;;;;;;;;51.60;2227.20;;;;;;4921131;29;19914;-80
2024/01/13 02:00:32;;;;;;;;;;;51.60;2227.20;;;;;;4935052;29;19907;-81
2024/01/13 02:02:58;;;;;;;;;;;51.60;2227.20;;;;;;4927670;29;19915;-81
2024/01/13 02:05:24;;;;;;;;;;;51.50;2227.20;;;;;;4954189;29;19907;-82
2024/01/13 02:07:50;;;;;;;;;;;51.50;2227.20;;;;;;4938207;29;20084;-81
2024/01/13 02:10:17;;;;;;;;;;;51.50;2227.20;;;;;;4939752;29;19950;-81
2024/01/13 02:12:43;;;;;;;;;;;51.40;2227.20;;;;;;4938564;29;20029;-80
2024/01/13 02:15:09;;;;;;;;;;;51.50;2227.20;;;;;;4938121;29;20009;-79
2024/01/13 02:20:42;;;;;;;;;;;51.30;2227.20;;;;;;4658621;23;20955;-75
2024/01/13 02:23:07;;;;;;;;;;;51.20;2227.20;;;;;;4931275;29;19930;-82
2024/01/13 02:25:34;;;;;;;;;;;51.20;2227.20;;;;;;4921343;29;20009;-81
2024/01/13 02:28:00;;;;;;;;;;;51.20;2227.20;;;;;;4921509;29;19942;-82
2024/01/13 02:30:25;;;;;;;;;;;51.20;2227.20;;;;;;4938186;29;19907;-82
2024/01/13 02:32:51;;;;;;;;;;;51.20;2227.20;;;;;;4920849;29;19954;-78
2024/01/13 02:35:17;;;;;;;;;;;26.50;2201.60;;;;;;4938262;29;19914;-79
2024/01/13 02:37:42;;;;;;;;;;;26.50;2201.60;;;;;;4920876;29;20289;-82
2024/01/13 02:40:09;;;;;;;;;;;26.40;2201.60;;;;;;4938180;29;19946;-81
2024/01/13 02:42:35;;;;;;;;;;;26.40;2201.60;;;;;;4920260;29;19938;-79
2024/01/13 02:45:01;;;;;;;;;;;26.30;2201.60;;;;;;4938008;29;19907;-83
2024/01/13 02:47:33;;;;;;;;;;;26.30;2201.60;;;;;;4921479;29;19906;-82
2024/01/13 02:49:59;;;;;;;;;;;26.40;2201.60;;;;;;4936985;29;19930;-82
2024/01/13 02:52:24;;;;;;;;;;;26.40;2201.60;;;;;;4940122;29;20400;-82
2024/01/13 02:54:50;;;;;;;;;;;26.40;2201.60;;;;;;4949358;29;19917;-82
2024/01/13 02:57:16;;;;;;;;;;;26.40;2201.60;;;;;;4938081;29;19910;-81
2024/01/13 02:59:41;;;;;;;;;;;26.30;2201.60;;;;;;4921111;29;20340;-82
2024/01/13 03:02:07;;;;;;;;;;;26.40;2201.60;;;;;;4944607;29;19917;-80
2024/01/13 03:04:32;;;;;;;;;;;26.30;2201.60;;;;;;4926638;29;19935;-81
2024/01/13 03:06:58;;;;;;;;;;;26.30;2201.60;;;;;;4937862;29;19907;-80
2024/01/13 03:09:23;;;;;;;;;;;26.20;2201.60;;;;;;4920632;29;19976;-79
2024/01/13 03:11:49;;;;;;;;;;;26.30;2201.60;;;;;;4931254;29;19907;-83
2024/01/13 03:14:15;;;;;;;;;;;26.20;2201.60;;;;;;4914267;29;19993;-83
2024/01/13 03:16:40;;;;;;;;;;;26.20;2201.60;;;;;;4936688;29;19907;-81
2024/01/13 03:19:06;;;;;;;;;;;26.20;2201.60;;;;;;4937297;29;20280;-78
2024/01/13 03:21:31;;;;;;;;;;;26.20;2201.60;;;;;;4933301;29;19926;-83
2024/01/13 03:23:57;;;;;;;;;;;26.20;2201.60;;;;;;4920574;29;19923;-83
2024/01/13 03:26:23;;;;;;;;;;;26.30;2201.60;;;;;;4918300;29;20006;-82
2024/01/13 03:28:48;;;;;;;;;;;26.40;2201.60;;;;;;4918413;29;19907;-80
2024/01/13 03:31:14;;;;;;;;;;;26.30;2201.60;;;;;;4918315;29;20361;-83
2024/01/13 03:33:39;;;;;;;;;;;26.20;2201.60;;;;;;4917356;29;19914;-83
2024/01/13 03:36:05;;;;;;;;;;;26.20;2201.60;;;;;;4933372;29;20014;-81
2024/01/13 03:38:31;;;;;;;;;;;26.30;2201.60;;;;;;4917626;29;19907;-81
2024/01/13 03:40:56;;;;;;;;;;;26.40;2201.60;;;;;;4916773;29;20425;-83
2024/01/13 03:43:22;;;;;;;;;;;26.50;2201.60;;;;;;4917109;29;19914;-79
2024/01/13 03:45:48;;;;;;;;;;;26.50;2201.60;;;;;;4916497;29;19935;-84
2024/01/13 03:48:13;;;;;;;;;;;26.20;2201.60;;;;;;4917293;29;19993;-81
2024/01/13 03:50:39;;;;;;;;;;;26.20;2201.60;;;;;;4916267;29;19911;-82
2024/01/13 03:53:04;;;;;;;;;;;26.20;2201.60;;;;;;4916998;29;20353;-83
2024/01/13 03:55:30;;;;;;;;;;;26.20;2201.60;;;;;;4917015;29;19997;-83
2024/01/13 03:57:55;;;;;;;;;;;26.20;2201.60;;;;;;4917892;29;20301;-80
2024/01/13 04:00:21;;;;;;;;;;;26.20;2201.60;;;;;;4916517;29;19946;-80
2024/01/13 04:02:47;;;;;;;;;;;26.10;2201.60;;;;;;4916710;29;20017;-81
2024/01/13 04:05:12;;;;;;;;;;;26.10;2201.60;;;;;;4918100;29;20365;-79
2024/01/13 04:07:38;;;;;;;;;;;26.30;2201.60;;;;;;4916708;29;19907;-78
2024/01/13 04:10:04;;;;;;;;;;;26.20;2201.60;;;;;;4923176;29;19950;-84
2024/01/13 04:12:30;;;;;;;;;;;26.30;2201.60;;;;;;4923820;29;20250;-83
2024/01/13 04:14:56;;;;;;;;;;;26.10;2201.60;;;;;;4916713;29;19914;-78
2024/01/13 04:17:21;;;;;;;;;;;26.30;2201.60;;;;;;4917234;29;19911;-83
2024/01/13 04:19:47;;;;;;;;;;;26.30;2201.60;;;;;;4929228;29;19907;-82
2024/01/13 04:22:12;;;;;;;;;;;26.20;2201.60;;;;;;4916159;29;19974;-83
2024/01/13 04:24:38;;;;;;;;;;;26.20;2201.60;;;;;;4935593;29;20281;-82
2024/01/13 04:27:04;;;;;;;;;;;26.30;2201.60;;;;;;4922906;29;20006;-83
2024/01/13 04:29:29;;;;;;;;;;;26.20;2201.60;;;;;;4916343;29;19970;-78
2024/01/13 04:31:55;;;;;;;;;;;26.20;2201.60;;;;;;4916413;29;19978;-82
2024/01/13 04:34:21;;;;;;;;;;;26.30;2201.60;;;;;;4931570;29;20002;-83
2024/01/13 04:36:46;;;;;;;;;;;26.20;2201.60;;;;;;4917609;29;19907;-82
2024/01/13 04:39:12;;;;;;;;;;;26.10;2201.60;;;;;;4916453;29;20369;-82
2024/01/13 04:41:41;;;;;;;;;;;26.10;2201.60;;;;;;4916642;29;19910;-83
2024/01/13 04:44:07;;;;;;;;;;;26.10;2201.60;;;;;;4917270;29;19915;-83
2024/01/13 04:46:33;;;;;;;;;;;26.20;2201.60;;;;;;4917286;29;20374;-83
2024/01/13 04:48:58;;;;;;;;;;;26.10;2201.60;;;;;;4916388;29;19911;-83
2024/01/13 04:51:24;;;;;;;;;;;26.20;2201.60;;;;;;4917130;29;19970;-83
2024/01/13 04:53:49;;;;;;;;;;;26.20;2201.60;;;;;;4917194;29;19915;-83
2024/01/13 04:56:16;;;;;;;;;;;26.20;2201.60;;;;;;4915932;29;20380;-79
2024/01/13 04:58:41;;;;;;;;;;;26.10;2201.60;;;;;;4916150;29;20368;-82
2024/01/13 05:01:07;;;;;;;;;;;26.10;2201.60;;;;;;4915896;29;19906;-79
2024/01/13 05:03:34;;;;;;;;;;;26.00;2201.60;;;;;;4915557;29;19922;-82
2024/01/13 05:06:00;;;;;;;;;;;26.10;2201.60;;;;;;4916028;29;19911;-81
2024/01/13 05:08:25;;;;;;;;;;;26.00;2201.60;;;;;;4915777;29;19935;-83
2024/01/13 05:10:51;;;;;;;;;;;26.00;2201.60;;;;;;4917515;29;19938;-82
2024/01/13 05:13:17;;;;;;;;;;;26.00;2201.60;;;;;;4916829;29;19907;-78
2024/01/13 05:15:42;;;;;;;;;;;26.10;2201.60;;;;;;4916711;29;19908;-83
2024/01/13 05:18:08;;;;;;;;;;;26.20;2201.60;;;;;;4948132;29;19959;-80
2024/01/13 05:20:34;;;;;;;;;;;26.20;2201.60;;;;;;4949119;29;19926;-82
2024/01/13 05:23:00;;;;;;;;;;;26.20;2201.60;;;;;;4923626;29;19923;-83
2024/01/13 05:25:25;;;;;;;;;;;26.30;2201.60;;;;;;4916474;29;19913;-84
2024/01/13 05:27:51;;;;;;;;;;;26.40;2201.60;;;;;;4915894;29;20143;-81
2024/01/13 05:30:17;;;;;;;;;;;26.30;2201.60;;;;;;4905722;29;19943;-81
2024/01/13 05:32:42;;;;;;;;;;;26.30;2201.60;;;;;;4913827;29;20003;-82
2024/01/13 05:35:08;;;;;;;;;;;26.40;2201.60;;;;;;4905740;29;19914;-79
2024/01/13 05:37:34;;;;;;;;;;;51.30;2227.20;;;;;;4897996;29;19915;-83
2024/01/13 05:40:00;;;;;;;;;;;26.30;2201.60;;;;;;4913359;29;20406;-81
2024/01/13 05:42:25;;;;;;;;;;;26.50;2201.60;;;;;;4904857;29;19922;-83
2024/01/13 05:44:52;;;;;;;;;;;26.50;2201.60;;;;;;4912897;29;19907;-83
2024/01/13 05:47:17;;;;;;;;;;;26.50;2201.60;;;;;;4915067;29;19907;-82
2024/01/13 05:49:43;;;;;;;;;;;26.50;2201.60;;;;;;4919533;29;19907;-79
2024/01/13 05:52:10;;;;;;;;;;;26.40;2201.60;;;;;;4918865;29;19922;-83
2024/01/13 05:54:39;;;;;;;;;;;26.50;2201.60;;;;;;4919539;29;19993;-83
2024/01/13 05:57:05;;;;;;;;;;;26.50;2201.60;;;;;;4919893;29;19907;-81
2024/01/13 05:59:30;;;;;;;;;;;51.20;2227.20;;;;;;4918455;29;19937;-80
2024/01/13 06:01:56;;;;;;;;;;;51.30;2227.20;;;;;;4914784;29;20021;-84
2024/01/13 06:04:22;;;;;;;;;;;51.50;2227.20;;;;;;4912752;29;19918;-85
2024/01/13 06:06:47;;;;;;;;;;;51.40;2227.20;;;;;;4919529;29;19931;-85
2024/01/13 06:09:13;;;;;;;;;;;51.50;2227.20;;;;;;4916011;29;20361;-79
2024/01/13 06:11:42;;;;;;;;;;;51.60;2227.20;;;;;;4919549;29;19911;-86
2024/01/13 06:14:08;;;;;;;;;;;51.80;2227.20;;;;;;4919111;29;19913;-86
2024/01/13 06:16:33;;;;;;;;;;;51.70;2227.20;;;;;;4931245;29;19946;-81
2024/01/13 06:19:01;;;;;;;;;;;51.70;2227.20;;;;;;4920248;29;19930;-86
2024/01/13 06:21:27;;;;;;;;;;;51.50;2227.20;;;;;;4918424;29;19919;-86
2024/01/13 06:23:53;;;;;;;;;;;51.40;2227.20;;;;;;4918565;29;20030;-83
2024/01/13 06:26:18;;;;;;;;;;;51.40;2227.20;;;;;;4914851;29;20341;-80
2024/01/13 06:28:44;;;;;;;;;;;51.50;2227.20;;;;;;4919001;29;19914;-83
2024/01/13 06:31:09;;;;;;;;;;;51.50;2227.20;;;;;;4919188;29;20002;-83
2024/01/13 06:33:35;;;;;;;;;;;51.40;2227.20;;;;;;4918334;29;19911;-78
2024/01/13 06:36:00;;;;;;;;;;;51.40;2227.20;;;;;;4919345;29;19915;-82
2024/01/13 06:38:26;;;;;;;;;;;51.30;2227.20;;;;;;4918889;29;20316;-78
2024/01/13 06:40:52;;;;;;;;;;;51.40;2227.20;;;;;;4918157;29;19911;-79
2024/01/13 06:43:17;;;;;;;;;;;51.50;2227.20;;;;;;4912319;29;19915;-84
2024/01/13 06:45:43;;;;;;;;;;;51.50;2227.20;;;;;;4917268;29;20371;-81
2024/01/13 06:48:08;;;;;;;;;;;51.50;2227.20;;;;;;4918904;29;19938;-80
2024/01/13 06:50:34;;;;;;;;;;;51.60;2227.20;;;;;;4918588;29;20002;-82
2024/01/13 06:52:59;;;;;;;;;;;51.60;2227.20;;;;;;4919450;29;19914;-82
2024/01/13 06:55:25;;;;;;;;;;;51.80;2227.20;;;;;;4918340;29;20002;-80
2024/01/13 06:57:51;;;;;;;;;;;51.80;2227.20;;;;;;4915876;29;19907;-80
2024/01/13 07:00:17;;;;;;;;;;;52.00;2227.20;;;;;;4918458;29;20425;-86
2024/01/13 07:02:44;;;;;;;;;;;51.90;2227.20;;;;;;4914881;29;19958;-77
2024/01/13 07:05:10;;;;;;;;;;;51.80;2227.20;;;;;;4915995;29;20392;-82
2024/01/13 07:07:36;;;;;;;;;;;51.80;2227.20;;;;;;4917428;29;19990;-79
2024/01/13 07:10:03;;;;;;;;;;;52.00;2227.20;;;;;;4917614;29;19982;-80
2024/01/13 07:12:29;;;;;;;;;;;51.80;2227.20;;;;;;4916475;29;19913;-82
2024/01/13 07:14:54;;;;;;;;;;;51.80;2227.20;;;;;;4919182;29;19915;-82
2024/01/13 07:17:20;;;;;;;;;;;51.70;2227.20;;;;;;4917917;29;20238;-79
2024/01/13 07:19:45;;;;;;;;;;;51.70;2227.20;;;;;;4917297;29;19907;-82
2024/01/13 07:22:12;;;;;;;;;;;51.70;2227.20;;;;;;4917570;29;19930;-82
2024/01/13 07:24:37;;;;;;;;;;;51.70;2227.20;;;;;;4919130;29;19907;-81
2024/01/13 07:27:03;;;;;;;;;;;51.70;2227.20;;;;;;4919102;29;20353;-77
2024/01/13 07:29:29;;;;;;;;;;;51.70;2227.20;;;;;;4916913;29;19911;-78
2024/01/13 07:31:54;;;;;;;;;;;51.80;2227.20;;;;;;4915647;29;20281;-83
2024/01/13 07:34:21;;;;;;;;;;;51.80;2227.20;;;;;;4914891;29;19911;-82
2024/01/13 07:36:46;;;;;;;;;;;52.00;2227.20;;;;;;4919262;29;19907;-81
2024/01/13 07:39:12;;;;;;;;;;;52.10;2227.20;;;;;;4918119;29;19914;-83
2024/01/13 07:41:38;;;;;;;;;;;52.10;2227.20;;;;;;4907954;29;19930;-80
2024/01/13 07:44:03;;;;;;;;;;;52.00;2227.20;;;;;;4917472;29;19919;-83
2024/01/13 07:46:29;;;;;;;;;;;52.00;2227.20;;;;;;4910146;29;19915;-84
2024/01/13 07:48:55;;;;;;;;;;;52.00;2227.20;;;;;;4913609;29;19911;-79
2024/01/13 07:51:20;;;;;;;;;;;51.90;2227.20;;;;;;4914336;29;20377;-79
2024/01/13 07:53:46;;;;;;;;;;;51.90;2227.20;;;;;;4916528;29;19950;-76
2024/01/13 07:56:12;;;;;;;;;;;51.80;2227.20;;;;;;4911332;29;19966;-79
2024/01/13 07:58:37;;;;;;;;;;;51.90;2227.20;;;;;;4915194;29;19990;-79
2024/01/13 08:01:03;;;;;;;;;;;52.00;2227.20;;;;;;4916198;29;19907;-82
2024/01/13 08:03:28;;;;;;;;;;;51.80;2227.20;;;;;;4917081;29;19982;-80
2024/01/13 08:05:54;;;;;;;;;;;51.70;2227.20;;;;;;4917585;29;19997;-82
2024/01/13 08:08:20;;;;;;;;;;;51.70;2227.20;;;;;;4912694;29;19914;-82
2024/01/13 08:10:46;;;;;;;;;;;51.80;2227.20;;;;;;4918533;29;19914;-83
2024/01/13 08:13:12;;;;;;;;;;;51.80;2227.20;;;;;;4918180;29;19926;-83
2024/01/13 08:15:37;;;;;;;;;;;51.90;2227.20;;;;;;4913722;29;19907;-80
2024/01/13 08:18:03;;;;;;;;;;;51.80;2227.20;;;;;;4915842;29;19907;-84
2024/01/13 08:20:29;;;;;;;;;;;51.70;2227.20;;;;;;4916312;29;19915;-82
2024/01/13 08:22:54;;;;;;;;;;;51.60;2227.20;;;;;;4934459;29;20337;-83
2024/01/13 08:25:20;;;;;;;;;;;51.70;2227.20;;;;;;4945110;29;19907;-80
2024/01/13 08:27:45;;;;;;;;;;;51.70;2227.20;;;;;;4933844;29;20002;-78
2024/01/13 08:30:12;;;;;;;;;;;51.70;2227.20;;;;;;4918160;29;19911;-80
2024/01/13 08:32:37;;;;;;;;;;;51.70;2227.20;;;;;;4918103;29;19922;-82
2024/01/13 08:35:03;;;;;;;;;;;51.70;2227.20;;;;;;4910401;29;19911;-78
2024/01/13 08:37:29;;;;;;;;;;;51.70;2227.20;;;;;;4920043;29;20438;-80
2024/01/13 08:39:54;;;;;;;;;;;51.70;2227.20;;;;;;4925781;29;19907;-81
2024/01/13 08:42:21;;;;;;;;;;;51.70;2227.20;;;;;;4926298;29;19918;-77
2024/01/13 08:44:46;;;;;;;;;;;51.80;2227.20;;;;;;4919398;29;19943;-77
2024/01/13 08:47:12;;;;;;;;;;;51.80;2227.20;;;;;;4937432;29;19911;-78
2024/01/13 08:49:39;;;;;;;;;;;51.90;2227.20;;;;;;4936349;29;19906;-83
2024/01/13 08:52:05;;;;;;;;;;;51.80;2227.20;;;;;;4936514;29;19922;-82
2024/01/13 08:54:31;;;;;;;;;;;52.00;2227.20;;;;;;4935658;29;19907;-77
2024/01/13 08:56:57;;;;;;;;;;;52.00;2227.20;;;;;;4931271;29;19953;-78
2024/01/13 08:59:23;;;;;;;;;;;52.10;2227.20;;;;;;4921253;29;19986;-78
2024/01/13 09:01:48;;;;;;;;;;;52.10;2227.20;;;;;;4926101;29;19965;-77
2024/01/13 09:04:14;;;;;;;;;;;52.10;2227.20;;;;;;4948023;29;19933;-81
2024/01/13 09:06:40;;;;;;;;;;;76.80;2227.20;;;;;;4929576;29;19929;-80
2024/01/13 09:09:06;;;;;;;;;;;52.10;2227.20;;;;;;4936793;29;19911;-79
2024/01/13 09:11:31;;;;;;;;;;;52.10;2227.20;;;;;;4918742;29;19958;-80
2024/01/13 09:13:57;;;;;;;;;;;76.80;2227.20;;;;;;4917656;29;19934;-80
2024/01/13 09:16:22;;;;;;;;;;;76.90;2227.20;;;;;;4920198;29;19961;-82
2024/01/13 09:18:48;;;;;;;;;;;77.00;2227.20;;;;;;4921296;29;20316;-79
2024/01/13 09:21:17;;;;;;;;;;;76.90;2227.20;;;;;;4920010;29;19930;-84
2024/01/13 09:23:43;;;;;;;;;;;77.00;2227.20;;;;;;4922828;29;19922;-83
2024/01/13 09:26:08;;;;;;;;;;;77.00;2227.20;;;;;;4921810;29;20365;-84
2024/01/13 09:28:34;;;;;;;;;;;77.20;2227.20;;;;;;4919104;29;19914;-83
2024/01/13 09:30:59;;;;;;;;;;;77.10;2227.20;;;;;;4919436;29;20354;-80
2024/01/13 09:33:25;;;;;;;;;;;77.10;2227.20;;;;;;4932268;29;19911;-81
2024/01/13 09:35:51;;;;;;;;;;;77.20;2227.20;;;;;;4922905;29;19982;-81
2024/01/13 09:38:16;;;;;;;;;;;77.30;2227.20;;;;;;4922231;29;19909;-82
2024/01/13 09:40:42;;;;;;;;;;;77.30;2227.20;;;;;;4917044;29;19906;-79
2024/01/13 09:43:15;;;;;;;;;;;77.30;2227.20;;;;;;4922430;29;19954;-81
2024/01/13 09:45:42;;;;;;;;;;;77.30;2227.20;;;;;;4921275;29;20348;-76
2024/01/13 09:48:08;;;;;;;;;;;77.20;2227.20;;;;;;4921753;29;19906;-76
2024/01/13 09:50:35;;;;;;;;;;;77.30;2227.20;;;;;;4918951;29;20391;-76
2024/01/13 09:53:03;;;;;;;;;;;77.40;2227.20;;;;;;4919385;29;19954;-79
2024/01/13 09:55:30;;;;;;;;;;;77.40;2227.20;;;;;;4919251;29;19915;-80
2024/01/13 09:57:56;;;;;;;;;;;77.50;2227.20;;;;;;4921690;29;19950;-77
2024/01/13 10:00:22;;;;;;;;;;;77.50;2227.20;;;;;;4930202;29;19957;-80
2024/01/13 10:02:47;;;;;;;;;;;77.70;2227.20;;;;;;4909303;29;19918;-78
2024/01/13 10:05:13;;;;;;;;;;;102.40;2227.20;;;;;;4921797;29;19981;-77
2024/01/13 10:07:41;;;;;;;;;;;77.70;2227.20;;;;;;4920450;29;19907;-80
2024/01/13 10:10:07;;;;;;;;;;;102.40;2227.20;;;;;;4916326;29;19907;-79
2024/01/13 10:12:34;;;;;;;;;;;102.50;2227.20;;;;;;4931993;29;19926;-84
2024/01/13 10:15:00;;;;;;;;;;;102.40;2227.20;;;;;;4914621;29;19907;-80
2024/01/13 10:17:25;;;;;;;;;;;102.40;2227.20;;;;;;4928107;29;19907;-79
2024/01/13 10:19:51;;;;;;;;;;;102.50;2227.20;;;;;;4933277;29;19958;-78
2024/01/13 10:22:18;;;;;;;;;;;102.40;2227.20;;;;;;4934481;29;19923;-77
2024/01/13 10:24:45;;;;;;;;;;;102.50;2227.20;;;;;;4921025;29;19914;-79
2024/01/13 10:27:11;;;;;;;;;;;102.50;2227.20;;;;;;4938018;29;19918;-78
2024/01/13 10:29:36;;;;;;;;;;;102.50;2227.20;;;;;;4931416;29;19907;-80
2024/01/13 10:32:02;;;;;;;;;;;77.70;2227.20;;;;;;4931597;29;20439;-80
2024/01/13 10:34:27;;;;;;;;;;;102.40;2227.20;;;;;;4921291;29;20349;-79
2024/01/13 10:37:06;;;;;;;;;;;102.50;2227.20;;;;;;4920097;29;19911;-79
2024/01/13 10:39:32;;;;;;;;;;;102.50;2227.20;;;;;;4921233;29;20415;-84
2024/01/13 10:41:57;;;;;;;;;;;102.50;2227.20;;;;;;4911869;29;19907;-81
2024/01/13 10:44:25;;;;;;;;;;;102.50;2227.20;;;;;;4912161;29;19960;-82
2024/01/13 10:46:52;;;;;;;;;;;102.60;2227.20;;;;;;4921482;29;19914;-83
2024/01/13 10:49:21;;;;;;;;;;;102.70;2227.20;;;;;;4933158;29;19906;-82
2024/01/13 10:51:56;;;;;;;;;;;102.70;2227.20;;;;;;4920485;29;19922;-81
2024/01/13 10:54:25;;;;;;;;;;;102.80;2227.20;;;;;;4937112;29;19957;-81
2024/01/13 10:56:55;;;;;;;;;;;102.90;2227.20;;;;;;4911703;29;19907;-75
2024/01/13 10:59:21;;;;;;;;;;;103.00;2227.20;;;;;;4920692;29;19939;-78
2024/01/13 11:01:48;;;;;;;;;;;103.00;2227.20;;;;;;4921633;29;19907;-84
2024/01/13 11:04:14;;;;;;;;;;;103.00;2227.20;;;;;;4920997;29;19914;-83
2024/01/13 11:06:41;;;;;;;;;;;103.00;2227.20;;;;;;4921268;29;19907;-82
2024/01/13 11:09:08;;;;;;;;;;;103.10;2227.20;;;;;;4922313;29;19906;-81
2024/01/13 11:11:39;;;;;;;;;;;103.00;2227.20;;;;;;4917256;29;19949;-82
2024/01/13 11:14:07;;;;;;;;;;;102.90;2227.20;;;;;;4924392;29;20002;-83
2024/01/13 11:16:34;;;;;;;;;;;102.90;2227.20;;;;;;4921163;29;19911;-82
2024/01/13 11:19:00;;;;;;;;;;;103.00;2227.20;;;;;;4921684;29;20400;-84
2024/01/13 11:21:30;;;;;;;;;;;103.00;2227.20;;;;;;4918040;29;19923;-81
2024/01/13 11:24:07;;;;;;;;;;;103.00;2227.20;;;;;;4921136;29;19914;-80
2024/01/13 11:26:48;;;;;;;;;;;102.90;2227.20;;;;;;4919804;29;19910;-80
2024/01/13 11:29:17;;;;;;;;;;;103.00;2227.20;;;;;;4934197;29;19910;-77
2024/01/13 11:31:45;;;;;;;;;;;102.90;2227.20;;;;;;4937441;29;19907;-83
2024/01/13 11:34:12;;;;;;;;;;;102.90;2227.20;;;;;;4934301;29;19911;-82
2024/01/13 11:36:45;;;;;;;;;;;102.90;2227.20;;;;;;4936185;29;19907;-78
2024/01/13 11:39:11;;;;;;;;;;;102.90;2227.20;;;;;;4920265;29;19907;-82
2024/01/13 11:41:44;;;;;;;;;;;102.90;2227.20;;;;;;4919757;29;19921;-80
2024/01/13 11:44:09;;;;;;;;;;;102.70;2227.20;;;;;;4937587;29;19919;-83
2024/01/13 11:46:45;;;;;;;;;;;102.80;2227.20;;;;;;4920413;29;19907;-83
2024/01/13 11:49:11;;;;;;;;;;;102.80;2227.20;;;;;;4918449;29;19907;-83
2024/01/13 11:51:59;;;;;;;;;;;103.00;2227.20;;;;;;4923258;29;19997;-80
2024/01/13 11:54:28;;;;;;;;;;;103.00;2227.20;;;;;;4917696;29;19921;-82
2024/01/13 11:56:54;;;;;;;;;;;103.00;2227.20;;;;;;4916486;29;19915;-82
2024/01/13 11:59:20;;;;;;;;;;;103.10;2227.20;;;;;;4919649;29;19911;-83
2024/01/13 12:01:45;;;;;;;;;;;103.20;2227.20;;;;;;4920320;29;20360;-83
2024/01/13 12:04:11;;;;;;;;;;;128.00;2252.80;;;;;;4911632;29;19971;-82
2024/01/13 12:06:37;;;;;;;;;;;103.30;2227.20;;;;;;4919440;29;19907;-82
2024/01/13 12:09:03;;;;;;;;;;;128.00;2252.80;;;;;;4920298;29;19911;-80
2024/01/13 12:11:28;;;;;;;;;;;128.10;2252.80;;;;;;4939223;29;20368;-81
2024/01/13 12:13:54;;;;;;;;;;;128.30;2252.80;;;;;;4911551;29;19914;-80
2024/01/13 12:16:19;;;;;;;;;;;128.40;2252.80;;;;;;4923388;29;20300;-82
2024/01/13 12:18:46;;;;;;;;;;;128.30;2252.80;;;;;;4938355;29;19914;-82
2024/01/13 12:21:12;;;;;;;;;;;128.60;2252.80;;;;;;4920001;29;19961;-83
2024/01/13 12:23:39;;;;;;;;;;;128.60;2252.80;;;;;;4931969;29;19965;-82
2024/01/13 12:26:05;;;;;;;;;;;128.70;2252.80;;;;;;4919551;29;19917;-85
2024/01/13 12:28:30;;;;;;;;;;;128.60;2252.80;;;;;;4919956;29;19910;-82
2024/01/13 12:30:56;;;;;;;;;;;128.30;2252.80;;;;;;4919699;29;19914;-82
2024/01/13 12:33:24;;;;;;;;;;;128.10;2252.80;;;;;;4917451;29;19960;-83
2024/01/13 12:35:57;;;;;;;;;;;103.30;2227.20;;;;;;4918901;29;19911;-82
2024/01/13 12:38:22;;;;;;;;;;;128.00;2252.80;;;;;;4920707;29;20013;-83
2024/01/13 12:40:48;;;;;;;;;;;128.10;2252.80;;;;;;4920415;29;19942;-83
2024/01/13 12:43:14;;;;;;;;;;;103.30;2227.20;;;;;;4921076;29;19919;-82
2024/01/13 12:45:40;;;;;;;;;;;103.20;2227.20;;;;;;4925594;29;19890;-82
2024/01/13 12:48:08;;;;;;;;;;;103.20;2227.20;;;;;;4945254;29;19919;-82
2024/01/13 12:50:36;;;;;;;;;;;103.10;2227.20;;;;;;4934239;29;19915;-83
2024/01/13 12:53:02;;;;;;;;;;;103.20;2227.20;;;;;;4920707;29;19907;-82
2024/01/13 12:55:28;;;;;;;;;;;103.10;2227.20;;;;;;4922974;29;19907;-82
2024/01/13 12:57:54;;;;;;;;;;;103.10;2227.20;;;;;;4924479;29;19917;-83
2024/01/13 13:00:20;;;;;;;;;;;103.10;2227.20;;;;;;4927709;29;19911;-82
2024/01/13 13:02:51;;;;;;;;;;;103.10;2227.20;;;;;;4927790;29;20284;-82
2024/01/13 13:05:17;;;;;;;;;;;103.00;2227.20;;;;;;4923384;29;19958;-82
2024/01/13 13:07:43;;;;;;;;;;;103.00;2227.20;;;;;;4922760;29;19910;-81
2024/01/13 13:10:08;;;;;;;;;;;102.90;2227.20;;;;;;4923270;29;20274;-82
2024/01/13 13:12:34;;;;;;;;;;;102.90;2227.20;;;;;;4922531;29;19907;-84
2024/01/13 13:15:00;;;;;;;;;;;102.90;2227.20;;;;;;4911325;29;19922;-83
2024/01/13 13:17:27;;;;;;;;;;;102.80;2227.20;;;;;;4921599;29;19907;-84
2024/01/13 13:19:52;;;;;;;;;;;102.80;2227.20;;;;;;4931019;29;19946;-83
2024/01/13 13:22:18;;;;;;;;;;;102.80;2227.20;;;;;;4922902;29;19985;-82
2024/01/13 13:24:44;;;;;;;;;;;102.80;2227.20;;;;;;4923350;29;19911;-84
2024/01/13 13:27:09;;;;;;;;;;;102.80;2227.20;;;;;;4928857;29;19930;-83
2024/01/13 13:29:35;;;;;;;;;;;102.80;2227.20;;;;;;4923078;29;20249;-83
2024/01/13 13:32:03;;;;;;;;;;;102.80;2227.20;;;;;;4922627;29;19907;-83
2024/01/13 13:34:33;;;;;;;;;;;102.80;2227.20;;;;;;4919620;29;19907;-82
2024/01/13 13:36:59;;;;;;;;;;;102.80;2227.20;;;;;;4923293;29;19990;-83
2024/01/13 13:39:31;;;;;;;;;;;102.80;2227.20;;;;;;4922520;29;19907;-83
2024/01/13 13:41:57;;;;;;;;;;;102.90;2227.20;;;;;;4933729;29;19907;-83
2024/01/13 13:44:23;;;;;;;;;;;102.90;2227.20;;;;;;4921591;29;20451;-83
2024/01/13 13:46:49;;;;;;;;;;;102.80;2227.20;;;;;;4926890;29;19907;-83